sensor_id;sensor_type;location;lat;lon;timestamp;P1;durP1;ratioP1;P2;durP2;ratioP2
60492;SDS011;46341;51.290;-2.474;2023-04-07T00:01:45;4.80;;;2.50;;
60492;SDS011;46341;51.290;-2.474;2023-04-07T00:04:11;5.53;;;2.30;;
60492;SDS011;46341;51.290;-2.474;2023-04-07T00:06:38;4.05;;;2.17;;
60492;SDS011;46341;51.290;-2.474;2023-04-07T00:09:05;7.28;;;2.63;;
60492;SDS011;46341;51.290;-2.474;2023-04-07T00:11:32;4.55;;;2.75;;
60492;SDS011;46341;51.290;-2.474;2023-04-07T00:13:58;5.57;;;3.17;;
60492;SDS011;46341;51.290;-2.474;2023-04-07T00:16:25;4.38;;;2.88;;
60492;SDS011;46341;51.290;-2.474;2023-04-07T00:18:51;4.57;;;2.75;;
60492;SDS011;46341;51.290;-2.474;2023-04-07T00:21:17;5.00;;;3.50;;
60492;SDS011;46341;51.290;-2.474;2023-04-07T00:23:44;5.55;;;2.78;;
60492;SDS011;46341;51.290;-2.474;2023-04-07T00:26:12;5.07;;;3.45;;
60492;SDS011;46341;51.290;-2.474;2023-04-07T00:28:38;5.60;;;3.20;;
60492;SDS011;46341;51.290;-2.474;2023-04-07T00:31:05;4.53;;;3.30;;
60492;SDS011;46341;51.290;-2.474;2023-04-07T00:33:31;5.40;;;3.50;;
60492;SDS011;46341;51.290;-2.474;2023-04-07T00:35:57;5.80;;;3.28;;
60492;SDS011;46341;51.290;-2.474;2023-04-07T00:38:24;6.32;;;3.40;;
60492;SDS011;46341;51.290;-2.474;2023-04-07T00:40:55;6.20;;;3.80;;
60492;SDS011;46341;51.290;-2.474;2023-04-07T00:43:22;6.47;;;4.60;;
60492;SDS011;46341;51.290;-2.474;2023-04-07T00:45:48;10.18;;;4.97;;
60492;SDS011;46341;51.290;-2.474;2023-04-07T00:48:15;6.78;;;4.40;;
60492;SDS011;46341;51.290;-2.474;2023-04-07T00:50:41;8.77;;;4.28;;
60492;SDS011;46341;51.290;-2.474;2023-04-07T00:53:08;8.90;;;4.43;;
60492;SDS011;46341;51.290;-2.474;2023-04-07T00:55:34;7.40;;;4.00;;
60492;SDS011;46341;51.290;-2.474;2023-04-07T00:58:01;5.60;;;3.38;;
60492;SDS011;46341;51.290;-2.474;2023-04-07T01:00:27;4.10;;;1.83;;
60492;SDS011;46341;51.290;-2.474;2023-04-07T01:03:00;6.00;;;2.38;;
60492;SDS011;46341;51.290;-2.474;2023-04-07T01:05:31;4.85;;;2.40;;
60492;SDS011;46341;51.290;-2.474;2023-04-07T01:15:43;5.53;;;3.13;;
60492;SDS011;46341;51.290;-2.474;2023-04-07T01:18:14;3.15;;;2.40;;
60492;SDS011;46341;51.290;-2.474;2023-04-07T01:20:42;7.13;;;3.80;;
60492;SDS011;46341;51.290;-2.474;2023-04-07T01:23:09;8.68;;;4.22;;
60492;SDS011;46341;51.290;-2.474;2023-04-07T01:28:12;9.18;;;4.40;;
60492;SDS011;46341;51.290;-2.474;2023-04-07T01:30:39;7.47;;;4.32;;
60492;SDS011;46341;51.290;-2.474;2023-04-07T01:33:09;7.63;;;4.80;;
60492;SDS011;46341;51.290;-2.474;2023-04-07T01:35:37;9.85;;;5.10;;
60492;SDS011;46341;51.290;-2.474;2023-04-07T01:38:04;6.90;;;4.20;;
60492;SDS011;46341;51.290;-2.474;2023-04-07T01:40:32;8.90;;;4.70;;
60492;SDS011;46341;51.290;-2.474;2023-04-07T01:42:59;9.23;;;5.18;;
60492;SDS011;46341;51.290;-2.474;2023-04-07T01:45:26;11.02;;;5.50;;
60492;SDS011;46341;51.290;-2.474;2023-04-07T01:47:53;7.68;;;4.25;;
60492;SDS011;46341;51.290;-2.474;2023-04-07T01:50:20;10.48;;;4.43;;
60492;SDS011;46341;51.290;-2.474;2023-04-07T01:52:46;5.97;;;4.07;;
60492;SDS011;46341;51.290;-2.474;2023-04-07T01:55:13;6.93;;;3.88;;
60492;SDS011;46341;51.290;-2.474;2023-04-07T01:57:39;7.28;;;3.35;;
60492;SDS011;46341;51.290;-2.474;2023-04-07T02:00:06;4.82;;;2.92;;
60492;SDS011;46341;51.290;-2.474;2023-04-07T02:02:33;5.80;;;3.45;;
60492;SDS011;46341;51.290;-2.474;2023-04-07T02:05:03;6.82;;;3.78;;
60492;SDS011;46341;51.290;-2.474;2023-04-07T02:07:34;5.45;;;3.30;;
60492;SDS011;46341;51.290;-2.474;2023-04-07T02:10:03;5.57;;;3.25;;
60492;SDS011;46341;51.290;-2.474;2023-04-07T02:12:31;7.13;;;3.92;;
60492;SDS011;46341;51.290;-2.474;2023-04-07T02:15:00;4.38;;;3.40;;
60492;SDS011;46341;51.290;-2.474;2023-04-07T02:17:26;5.72;;;3.40;;
60492;SDS011;46341;51.290;-2.474;2023-04-07T02:19:53;4.20;;;2.85;;
60492;SDS011;46341;51.290;-2.474;2023-04-07T02:22:20;5.40;;;3.03;;
60492;SDS011;46341;51.290;-2.474;2023-04-07T02:24:47;7.43;;;3.10;;
60492;SDS011;46341;51.290;-2.474;2023-04-07T02:27:13;6.25;;;3.10;;
60492;SDS011;46341;51.290;-2.474;2023-04-07T02:29:40;6.07;;;3.15;;
60492;SDS011;46341;51.290;-2.474;2023-04-07T02:32:06;6.57;;;3.17;;
60492;SDS011;46341;51.290;-2.474;2023-04-07T02:34:32;4.97;;;2.78;;
60492;SDS011;46341;51.290;-2.474;2023-04-07T02:36:59;4.85;;;2.85;;
60492;SDS011;46341;51.290;-2.474;2023-04-07T02:39:26;5.03;;;2.85;;
60492;SDS011;46341;51.290;-2.474;2023-04-07T02:41:52;7.43;;;2.60;;
60492;SDS011;46341;51.290;-2.474;2023-04-07T02:44:18;5.03;;;2.70;;
60492;SDS011;46341;51.290;-2.474;2023-04-07T02:46:45;4.35;;;2.88;;
60492;SDS011;46341;51.290;-2.474;2023-04-07T02:49:11;5.07;;;2.42;;
60492;SDS011;46341;51.290;-2.474;2023-04-07T02:51:37;4.57;;;2.60;;
60492;SDS011;46341;51.290;-2.474;2023-04-07T02:54:04;4.80;;;2.42;;
60492;SDS011;46341;51.290;-2.474;2023-04-07T02:56:30;3.90;;;2.33;;
60492;SDS011;46341;51.290;-2.474;2023-04-07T02:58:57;4.43;;;2.40;;
60492;SDS011;46341;51.290;-2.474;2023-04-07T03:01:24;4.72;;;2.55;;
60492;SDS011;46341;51.290;-2.474;2023-04-07T03:03:50;4.05;;;2.00;;
60492;SDS011;46341;51.290;-2.474;2023-04-07T03:06:17;4.60;;;1.90;;
60492;SDS011;46341;51.290;-2.474;2023-04-07T03:08:43;3.17;;;1.83;;
60492;SDS011;46341;51.290;-2.474;2023-04-07T03:11:10;2.38;;;1.60;;
60492;SDS011;46341;51.290;-2.474;2023-04-07T03:13:36;2.67;;;1.85;;
60492;SDS011;46341;51.290;-2.474;2023-04-07T03:16:03;2.33;;;1.60;;
60492;SDS011;46341;51.290;-2.474;2023-04-07T03:18:29;3.95;;;1.85;;
60492;SDS011;46341;51.290;-2.474;2023-04-07T03:20:56;4.88;;;1.75;;
60492;SDS011;46341;51.290;-2.474;2023-04-07T03:23:22;3.83;;;1.63;;
60492;SDS011;46341;51.290;-2.474;2023-04-07T03:25:49;2.33;;;1.63;;
60492;SDS011;46341;51.290;-2.474;2023-04-07T03:28:15;3.72;;;1.55;;
60492;SDS011;46341;51.290;-2.474;2023-04-07T03:30:42;4.20;;;1.88;;
60492;SDS011;46341;51.290;-2.474;2023-04-07T03:33:08;2.80;;;1.55;;
60492;SDS011;46341;51.290;-2.474;2023-04-07T03:35:35;2.83;;;1.80;;
60492;SDS011;46341;51.290;-2.474;2023-04-07T03:38:01;3.30;;;1.52;;
60492;SDS011;46341;51.290;-2.474;2023-04-07T03:40:28;3.03;;;1.90;;
60492;SDS011;46341;51.290;-2.474;2023-04-07T03:42:54;2.63;;;1.75;;
60492;SDS011;46341;51.290;-2.474;2023-04-07T03:45:20;2.05;;;1.45;;
60492;SDS011;46341;51.290;-2.474;2023-04-07T03:47:47;3.42;;;1.80;;
60492;SDS011;46341;51.290;-2.474;2023-04-07T03:50:13;2.92;;;1.73;;
60492;SDS011;46341;51.290;-2.474;2023-04-07T03:52:40;3.22;;;1.65;;
60492;SDS011;46341;51.290;-2.474;2023-04-07T03:55:06;3.42;;;1.90;;
60492;SDS011;46341;51.290;-2.474;2023-04-07T03:57:33;3.40;;;1.70;;
60492;SDS011;46341;51.290;-2.474;2023-04-07T03:59:59;3.85;;;1.67;;
60492;SDS011;46341;51.290;-2.474;2023-04-07T04:02:26;2.55;;;1.70;;
60492;SDS011;46341;51.290;-2.474;2023-04-07T04:04:52;2.75;;;1.70;;
60492;SDS011;46341;51.290;-2.474;2023-04-07T04:07:19;3.17;;;1.73;;
60492;SDS011;46341;51.290;-2.474;2023-04-07T04:09:45;4.50;;;2.03;;
60492;SDS011;46341;51.290;-2.474;2023-04-07T04:12:12;4.18;;;2.15;;
60492;SDS011;46341;51.290;-2.474;2023-04-07T04:14:38;4.40;;;2.10;;
60492;SDS011;46341;51.290;-2.474;2023-04-07T04:17:04;5.47;;;2.42;;
60492;SDS011;46341;51.290;-2.474;2023-04-07T04:19:31;5.18;;;2.35;;
60492;SDS011;46341;51.290;-2.474;2023-04-07T04:21:57;3.47;;;1.92;;
60492;SDS011;46341;51.290;-2.474;2023-04-07T04:24:23;2.60;;;1.70;;
60492;SDS011;46341;51.290;-2.474;2023-04-07T04:26:50;2.63;;;2.20;;
60492;SDS011;46341;51.290;-2.474;2023-04-07T04:29:16;3.75;;;1.88;;
60492;SDS011;46341;51.290;-2.474;2023-04-07T04:31:43;5.38;;;2.78;;
60492;SDS011;46341;51.290;-2.474;2023-04-07T04:34:09;4.50;;;2.28;;
60492;SDS011;46341;51.290;-2.474;2023-04-07T04:36:36;6.20;;;2.60;;
60492;SDS011;46341;51.290;-2.474;2023-04-07T04:39:03;6.20;;;2.58;;
60492;SDS011;46341;51.290;-2.474;2023-04-07T04:41:30;5.10;;;2.70;;
60492;SDS011;46341;51.290;-2.474;2023-04-07T04:43:56;4.53;;;2.40;;
60492;SDS011;46341;51.290;-2.474;2023-04-07T04:46:23;4.40;;;2.72;;
60492;SDS011;46341;51.290;-2.474;2023-04-07T04:48:49;3.95;;;2.45;;
60492;SDS011;46341;51.290;-2.474;2023-04-07T04:53:44;3.88;;;2.70;;
60492;SDS011;46341;51.290;-2.474;2023-04-07T04:56:10;3.85;;;2.55;;
60492;SDS011;46341;51.290;-2.474;2023-04-07T04:58:36;3.50;;;1.88;;
60492;SDS011;46341;51.290;-2.474;2023-04-07T05:01:05;4.78;;;2.70;;
60492;SDS011;46341;51.290;-2.474;2023-04-07T05:03:31;3.17;;;2.35;;
60492;SDS011;46341;51.290;-2.474;2023-04-07T05:05:58;3.25;;;2.45;;
60492;SDS011;46341;51.290;-2.474;2023-04-07T05:08:24;6.50;;;2.40;;
60492;SDS011;46341;51.290;-2.474;2023-04-07T05:10:51;5.40;;;2.45;;
60492;SDS011;46341;51.290;-2.474;2023-04-07T05:13:17;5.10;;;2.85;;
60492;SDS011;46341;51.290;-2.474;2023-04-07T05:15:44;4.45;;;2.25;;
60492;SDS011;46341;51.290;-2.474;2023-04-07T05:18:10;7.00;;;2.53;;
60492;SDS011;46341;51.290;-2.474;2023-04-07T05:20:36;5.15;;;2.28;;
60492;SDS011;46341;51.290;-2.474;2023-04-07T05:23:03;4.57;;;2.42;;
60492;SDS011;46341;51.290;-2.474;2023-04-07T05:25:30;5.60;;;2.42;;
60492;SDS011;46341;51.290;-2.474;2023-04-07T05:27:56;7.93;;;3.65;;
60492;SDS011;46341;51.290;-2.474;2023-04-07T05:30:23;4.78;;;3.00;;
60492;SDS011;46341;51.290;-2.474;2023-04-07T05:32:49;6.13;;;3.30;;
60492;SDS011;46341;51.290;-2.474;2023-04-07T05:35:16;7.10;;;3.60;;
60492;SDS011;46341;51.290;-2.474;2023-04-07T05:37:42;3.97;;;2.70;;
60492;SDS011;46341;51.290;-2.474;2023-04-07T05:40:08;6.75;;;3.42;;
60492;SDS011;46341;51.290;-2.474;2023-04-07T05:42:35;6.18;;;2.95;;
60492;SDS011;46341;51.290;-2.474;2023-04-07T05:45:02;4.15;;;3.08;;
60492;SDS011;46341;51.290;-2.474;2023-04-07T05:47:28;4.38;;;2.70;;
60492;SDS011;46341;51.290;-2.474;2023-04-07T05:49:55;8.70;;;3.85;;
60492;SDS011;46341;51.290;-2.474;2023-04-07T05:52:21;5.20;;;3.22;;
60492;SDS011;46341;51.290;-2.474;2023-04-07T05:54:48;4.45;;;3.00;;
60492;SDS011;46341;51.290;-2.474;2023-04-07T05:57:14;5.47;;;3.28;;
60492;SDS011;46341;51.290;-2.474;2023-04-07T05:59:41;4.03;;;3.05;;
60492;SDS011;46341;51.290;-2.474;2023-04-07T06:02:07;5.35;;;2.90;;
60492;SDS011;46341;51.290;-2.474;2023-04-07T06:04:33;6.70;;;3.10;;
60492;SDS011;46341;51.290;-2.474;2023-04-07T06:07:03;5.97;;;2.90;;
60492;SDS011;46341;51.290;-2.474;2023-04-07T06:09:30;5.50;;;2.67;;
60492;SDS011;46341;51.290;-2.474;2023-04-07T06:11:56;7.05;;;2.95;;
60492;SDS011;46341;51.290;-2.474;2023-04-07T06:14:23;4.53;;;2.75;;
60492;SDS011;46341;51.290;-2.474;2023-04-07T06:16:49;5.72;;;3.13;;
60492;SDS011;46341;51.290;-2.474;2023-04-07T06:19:16;4.22;;;2.30;;
60492;SDS011;46341;51.290;-2.474;2023-04-07T06:21:42;3.67;;;2.40;;
60492;SDS011;46341;51.290;-2.474;2023-04-07T06:24:09;4.70;;;2.42;;
60492;SDS011;46341;51.290;-2.474;2023-04-07T06:26:35;3.67;;;2.42;;
60492;SDS011;46341;51.290;-2.474;2023-04-07T06:29:02;4.70;;;2.63;;
60492;SDS011;46341;51.290;-2.474;2023-04-07T06:31:28;5.05;;;2.88;;
60492;SDS011;46341;51.290;-2.474;2023-04-07T06:33:54;6.90;;;3.00;;
60492;SDS011;46341;51.290;-2.474;2023-04-07T06:36:21;3.92;;;2.72;;
60492;SDS011;46341;51.290;-2.474;2023-04-07T06:38:48;4.72;;;2.90;;
60492;SDS011;46341;51.290;-2.474;2023-04-07T06:41:15;7.97;;;3.75;;
60492;SDS011;46341;51.290;-2.474;2023-04-07T06:43:46;4.03;;;2.97;;
60492;SDS011;46341;51.290;-2.474;2023-04-07T06:46:13;3.85;;;2.65;;
60492;SDS011;46341;51.290;-2.474;2023-04-07T06:48:39;4.15;;;3.00;;
60492;SDS011;46341;51.290;-2.474;2023-04-07T06:51:06;5.65;;;3.33;;
60492;SDS011;46341;51.290;-2.474;2023-04-07T06:53:32;8.10;;;5.15;;
60492;SDS011;46341;51.290;-2.474;2023-04-07T06:56:16;7.93;;;5.30;;
60492;SDS011;46341;51.290;-2.474;2023-04-07T06:58:43;8.63;;;4.50;;
60492;SDS011;46341;51.290;-2.474;2023-04-07T07:01:09;7.88;;;5.03;;
60492;SDS011;46341;51.290;-2.474;2023-04-07T07:03:36;10.40;;;4.80;;
60492;SDS011;46341;51.290;-2.474;2023-04-07T07:06:02;6.85;;;4.97;;
60492;SDS011;46341;51.290;-2.474;2023-04-07T07:08:29;5.75;;;4.45;;
60492;SDS011;46341;51.290;-2.474;2023-04-07T07:10:56;8.13;;;4.30;;
60492;SDS011;46341;51.290;-2.474;2023-04-07T07:13:23;5.65;;;4.30;;
60492;SDS011;46341;51.290;-2.474;2023-04-07T07:15:50;4.97;;;4.20;;
60492;SDS011;46341;51.290;-2.474;2023-04-07T07:18:17;8.02;;;4.70;;
60492;SDS011;46341;51.290;-2.474;2023-04-07T07:20:43;6.95;;;4.65;;
60492;SDS011;46341;51.290;-2.474;2023-04-07T07:23:10;8.85;;;5.40;;
60492;SDS011;46341;51.290;-2.474;2023-04-07T07:25:36;7.90;;;5.20;;
60492;SDS011;46341;51.290;-2.474;2023-04-07T07:28:03;8.10;;;4.05;;
60492;SDS011;46341;51.290;-2.474;2023-04-07T07:30:29;7.65;;;4.55;;
60492;SDS011;46341;51.290;-2.474;2023-04-07T07:32:56;5.20;;;3.83;;
60492;SDS011;46341;51.290;-2.474;2023-04-07T07:35:23;6.93;;;4.25;;
60492;SDS011;46341;51.290;-2.474;2023-04-07T07:37:51;7.75;;;4.07;;
60492;SDS011;46341;51.290;-2.474;2023-04-07T07:40:17;7.07;;;4.10;;
60492;SDS011;46341;51.290;-2.474;2023-04-07T07:42:44;5.28;;;4.07;;
60492;SDS011;46341;51.290;-2.474;2023-04-07T07:45:11;7.43;;;3.80;;
60492;SDS011;46341;51.290;-2.474;2023-04-07T07:47:39;5.30;;;3.25;;
60492;SDS011;46341;51.290;-2.474;2023-04-07T07:50:06;7.33;;;3.50;;
60492;SDS011;46341;51.290;-2.474;2023-04-07T07:52:32;6.50;;;3.05;;
60492;SDS011;46341;51.290;-2.474;2023-04-07T07:54:59;6.65;;;2.83;;
60492;SDS011;46341;51.290;-2.474;2023-04-07T07:57:25;3.80;;;1.88;;
60492;SDS011;46341;51.290;-2.474;2023-04-07T07:59:51;5.43;;;2.40;;
60492;SDS011;46341;51.290;-2.474;2023-04-07T08:02:18;5.28;;;1.70;;
60492;SDS011;46341;51.290;-2.474;2023-04-07T08:04:45;3.13;;;1.90;;
60492;SDS011;46341;51.290;-2.474;2023-04-07T08:07:11;5.63;;;1.50;;
60492;SDS011;46341;51.290;-2.474;2023-04-07T08:09:37;3.40;;;1.05;;
60492;SDS011;46341;51.290;-2.474;2023-04-07T08:12:04;3.17;;;1.10;;
60492;SDS011;46341;51.290;-2.474;2023-04-07T08:14:30;5.18;;;1.20;;
60492;SDS011;46341;51.290;-2.474;2023-04-07T08:16:57;3.30;;;0.90;;
60492;SDS011;46341;51.290;-2.474;2023-04-07T08:19:23;3.70;;;1.00;;
60492;SDS011;46341;51.290;-2.474;2023-04-07T08:21:49;3.25;;;1.10;;
60492;SDS011;46341;51.290;-2.474;2023-04-07T08:24:16;4.15;;;1.20;;
60492;SDS011;46341;51.290;-2.474;2023-04-07T08:26:42;4.25;;;1.05;;
60492;SDS011;46341;51.290;-2.474;2023-04-07T08:29:10;6.32;;;0.98;;
60492;SDS011;46341;51.290;-2.474;2023-04-07T08:31:37;5.40;;;0.90;;
60492;SDS011;46341;51.290;-2.474;2023-04-07T08:34:03;3.58;;;1.08;;
60492;SDS011;46341;51.290;-2.474;2023-04-07T08:36:29;6.18;;;1.10;;
60492;SDS011;46341;51.290;-2.474;2023-04-07T08:38:56;4.75;;;1.05;;
60492;SDS011;46341;51.290;-2.474;2023-04-07T08:41:26;3.92;;;0.73;;
60492;SDS011;46341;51.290;-2.474;2023-04-07T08:43:56;1.98;;;0.70;;
60492;SDS011;46341;51.290;-2.474;2023-04-07T08:46:23;2.83;;;0.80;;
60492;SDS011;46341;51.290;-2.474;2023-04-07T08:48:51;3.08;;;1.08;;
60492;SDS011;46341;51.290;-2.474;2023-04-07T08:51:21;2.53;;;0.80;;
60492;SDS011;46341;51.290;-2.474;2023-04-07T08:53:52;3.33;;;0.70;;
60492;SDS011;46341;51.290;-2.474;2023-04-07T08:56:19;3.30;;;0.80;;
60492;SDS011;46341;51.290;-2.474;2023-04-07T08:58:47;2.00;;;0.50;;
60492;SDS011;46341;51.290;-2.474;2023-04-07T09:01:13;2.45;;;0.80;;
60492;SDS011;46341;51.290;-2.474;2023-04-07T09:03:43;2.78;;;0.88;;
60492;SDS011;46341;51.290;-2.474;2023-04-07T09:06:12;2.35;;;0.60;;
60492;SDS011;46341;51.290;-2.474;2023-04-07T09:08:38;2.95;;;0.73;;
60492;SDS011;46341;51.290;-2.474;2023-04-07T09:11:04;2.88;;;0.70;;
60492;SDS011;46341;51.290;-2.474;2023-04-07T09:13:31;3.13;;;1.03;;
60492;SDS011;46341;51.290;-2.474;2023-04-07T09:15:59;3.08;;;0.80;;
60492;SDS011;46341;51.290;-2.474;2023-04-07T09:18:26;2.67;;;0.80;;
60492;SDS011;46341;51.290;-2.474;2023-04-07T09:25:55;4.43;;;0.93;;
60492;SDS011;46341;51.290;-2.474;2023-04-07T09:28:25;2.78;;;0.60;;
60492;SDS011;46341;51.290;-2.474;2023-04-07T09:31:02;3.13;;;1.00;;
60492;SDS011;46341;51.290;-2.474;2023-04-07T09:33:29;1.77;;;0.63;;
60492;SDS011;46341;51.290;-2.474;2023-04-07T09:35:56;3.15;;;0.65;;
60492;SDS011;46341;51.290;-2.474;2023-04-07T09:38:22;2.55;;;0.95;;
60492;SDS011;46341;51.290;-2.474;2023-04-07T09:43:36;2.30;;;0.80;;
60492;SDS011;46341;51.290;-2.474;2023-04-07T09:46:09;2.75;;;1.00;;
60492;SDS011;46341;51.290;-2.474;2023-04-07T09:48:36;2.88;;;0.77;;
60492;SDS011;46341;51.290;-2.474;2023-04-07T09:51:04;1.70;;;0.77;;
60492;SDS011;46341;51.290;-2.474;2023-04-07T09:53:40;4.30;;;1.10;;
60492;SDS011;46341;51.290;-2.474;2023-04-07T09:56:07;2.10;;;1.00;;
60492;SDS011;46341;51.290;-2.474;2023-04-07T09:58:34;2.80;;;0.80;;
60492;SDS011;46341;51.290;-2.474;2023-04-07T10:01:03;3.88;;;0.73;;
60492;SDS011;46341;51.290;-2.474;2023-04-07T10:03:30;2.70;;;0.63;;
60492;SDS011;46341;51.290;-2.474;2023-04-07T10:06:02;3.15;;;0.90;;
60492;SDS011;46341;51.290;-2.474;2023-04-07T10:08:30;2.53;;;0.70;;
60492;SDS011;46341;51.290;-2.474;2023-04-07T10:10:57;2.22;;;0.80;;
60492;SDS011;46341;51.290;-2.474;2023-04-07T10:13:24;2.28;;;0.60;;
60492;SDS011;46341;51.290;-2.474;2023-04-07T10:15:51;1.88;;;0.68;;
60492;SDS011;46341;51.290;-2.474;2023-04-07T10:23:18;2.22;;;0.95;;
60492;SDS011;46341;51.290;-2.474;2023-04-07T10:25:47;3.83;;;0.98;;
60492;SDS011;46341;51.290;-2.474;2023-04-07T10:28:14;3.33;;;0.88;;
60492;SDS011;46341;51.290;-2.474;2023-04-07T10:30:41;2.90;;;0.80;;
60492;SDS011;46341;51.290;-2.474;2023-04-07T10:33:08;1.55;;;0.50;;
60492;SDS011;46341;51.290;-2.474;2023-04-07T10:38:23;3.28;;;0.70;;
60492;SDS011;46341;51.290;-2.474;2023-04-07T10:40:49;2.78;;;0.90;;
60492;SDS011;46341;51.290;-2.474;2023-04-07T10:43:35;4.38;;;0.75;;
60492;SDS011;46341;51.290;-2.474;2023-04-07T10:46:01;2.95;;;0.77;;
60492;SDS011;46341;51.290;-2.474;2023-04-07T10:48:28;4.32;;;1.08;;
60492;SDS011;46341;51.290;-2.474;2023-04-07T10:53:30;3.10;;;0.60;;
60492;SDS011;46341;51.290;-2.474;2023-04-07T10:55:57;3.97;;;0.88;;
60492;SDS011;46341;51.290;-2.474;2023-04-07T10:58:25;2.60;;;0.80;;
60492;SDS011;46341;51.290;-2.474;2023-04-07T11:03:37;1.90;;;0.73;;
60492;SDS011;46341;51.290;-2.474;2023-04-07T11:06:04;2.97;;;0.90;;
60492;SDS011;46341;51.290;-2.474;2023-04-07T11:11:00;2.72;;;0.75;;
60492;SDS011;46341;51.290;-2.474;2023-04-07T11:13:27;2.60;;;0.70;;
60492;SDS011;46341;51.290;-2.474;2023-04-07T11:15:54;1.55;;;0.70;;
60492;SDS011;46341;51.290;-2.474;2023-04-07T11:18:20;1.50;;;0.90;;
60492;SDS011;46341;51.290;-2.474;2023-04-07T11:20:55;1.17;;;0.40;;
60492;SDS011;46341;51.290;-2.474;2023-04-07T11:23:25;1.98;;;0.50;;
60492;SDS011;46341;51.290;-2.474;2023-04-07T11:25:59;2.35;;;0.68;;
60492;SDS011;46341;51.290;-2.474;2023-04-07T11:28:29;1.95;;;0.60;;
60492;SDS011;46341;51.290;-2.474;2023-04-07T11:30:56;1.30;;;0.40;;
60492;SDS011;46341;51.290;-2.474;2023-04-07T11:33:25;1.75;;;0.55;;
60492;SDS011;46341;51.290;-2.474;2023-04-07T11:35:56;2.53;;;0.65;;
60492;SDS011;46341;51.290;-2.474;2023-04-07T11:38:24;2.55;;;0.70;;
60492;SDS011;46341;51.290;-2.474;2023-04-07T11:40:50;2.15;;;0.50;;
60492;SDS011;46341;51.290;-2.474;2023-04-07T11:43:21;1.85;;;0.45;;
60492;SDS011;46341;51.290;-2.474;2023-04-07T11:48:30;2.30;;;0.80;;
60492;SDS011;46341;51.290;-2.474;2023-04-07T11:50:57;1.17;;;0.50;;
60492;SDS011;46341;51.290;-2.474;2023-04-07T11:53:27;2.10;;;0.73;;
60492;SDS011;46341;51.290;-2.474;2023-04-07T11:56:00;4.07;;;0.40;;
60492;SDS011;46341;51.290;-2.474;2023-04-07T11:58:27;1.85;;;0.60;;
60492;SDS011;46341;51.290;-2.474;2023-04-07T12:00:54;1.70;;;0.50;;
60492;SDS011;46341;51.290;-2.474;2023-04-07T12:03:21;1.20;;;0.47;;
60492;SDS011;46341;51.290;-2.474;2023-04-07T12:05:48;3.80;;;0.60;;
60492;SDS011;46341;51.290;-2.474;2023-04-07T12:08:15;1.25;;;0.50;;
60492;SDS011;46341;51.290;-2.474;2023-04-07T12:10:41;1.92;;;0.60;;
60492;SDS011;46341;51.290;-2.474;2023-04-07T12:13:08;1.45;;;0.45;;
60492;SDS011;46341;51.290;-2.474;2023-04-07T12:15:34;1.02;;;0.60;;
60492;SDS011;46341;51.290;-2.474;2023-04-07T12:18:02;2.65;;;0.60;;
60492;SDS011;46341;51.290;-2.474;2023-04-07T12:20:29;1.40;;;0.30;;
60492;SDS011;46341;51.290;-2.474;2023-04-07T12:22:55;0.82;;;0.45;;
60492;SDS011;46341;51.290;-2.474;2023-04-07T12:25:22;1.85;;;0.50;;
60492;SDS011;46341;51.290;-2.474;2023-04-07T12:27:48;1.15;;;0.30;;
60492;SDS011;46341;51.290;-2.474;2023-04-07T12:30:15;1.27;;;0.30;;
60492;SDS011;46341;51.290;-2.474;2023-04-07T12:32:41;0.68;;;0.28;;
60492;SDS011;46341;51.290;-2.474;2023-04-07T12:35:07;2.13;;;0.52;;
60492;SDS011;46341;51.290;-2.474;2023-04-07T12:37:34;1.80;;;0.60;;
60492;SDS011;46341;51.290;-2.474;2023-04-07T12:40:00;0.90;;;0.43;;
60492;SDS011;46341;51.290;-2.474;2023-04-07T12:42:27;1.58;;;0.50;;
60492;SDS011;46341;51.290;-2.474;2023-04-07T12:44:53;1.90;;;0.47;;
60492;SDS011;46341;51.290;-2.474;2023-04-07T12:47:20;1.65;;;0.30;;
60492;SDS011;46341;51.290;-2.474;2023-04-07T12:49:47;0.98;;;0.30;;
60492;SDS011;46341;51.290;-2.474;2023-04-07T12:52:15;1.65;;;0.60;;
60492;SDS011;46341;51.290;-2.474;2023-04-07T12:54:42;0.95;;;0.30;;
60492;SDS011;46341;51.290;-2.474;2023-04-07T12:57:09;1.90;;;0.50;;
60492;SDS011;46341;51.290;-2.474;2023-04-07T12:59:36;1.13;;;0.30;;
60492;SDS011;46341;51.290;-2.474;2023-04-07T13:02:02;1.10;;;0.60;;
60492;SDS011;46341;51.290;-2.474;2023-04-07T13:04:29;2.35;;;0.35;;
60492;SDS011;46341;51.290;-2.474;2023-04-07T13:06:56;2.45;;;1.10;;
60492;SDS011;46341;51.290;-2.474;2023-04-07T13:09:23;0.85;;;0.30;;
60492;SDS011;46341;51.290;-2.474;2023-04-07T13:11:50;2.42;;;1.55;;
60492;SDS011;46341;51.290;-2.474;2023-04-07T13:14:16;1.35;;;0.40;;
60492;SDS011;46341;51.290;-2.474;2023-04-07T13:16:42;0.65;;;0.50;;
60492;SDS011;46341;51.290;-2.474;2023-04-07T13:19:09;1.10;;;0.45;;
60492;SDS011;46341;51.290;-2.474;2023-04-07T13:21:36;0.75;;;0.40;;
60492;SDS011;46341;51.290;-2.474;2023-04-07T13:24:05;0.40;;;0.22;;
60492;SDS011;46341;51.290;-2.474;2023-04-07T13:26:32;0.85;;;0.38;;
60492;SDS011;46341;51.290;-2.474;2023-04-07T13:28:58;1.35;;;0.30;;
60492;SDS011;46341;51.290;-2.474;2023-04-07T13:31:24;1.98;;;0.30;;
60492;SDS011;46341;51.290;-2.474;2023-04-07T13:33:51;2.03;;;0.30;;
60492;SDS011;46341;51.290;-2.474;2023-04-07T13:36:17;0.95;;;0.35;;
60492;SDS011;46341;51.290;-2.474;2023-04-07T13:38:46;1.27;;;0.32;;
60492;SDS011;46341;51.290;-2.474;2023-04-07T13:41:13;1.35;;;0.40;;
60492;SDS011;46341;51.290;-2.474;2023-04-07T13:43:39;0.45;;;0.30;;
60492;SDS011;46341;51.290;-2.474;2023-04-07T13:46:06;1.08;;;0.30;;
60492;SDS011;46341;51.290;-2.474;2023-04-07T13:48:50;1.77;;;0.30;;
60492;SDS011;46341;51.290;-2.474;2023-04-07T13:51:17;1.15;;;0.20;;
60492;SDS011;46341;51.290;-2.474;2023-04-07T13:53:44;0.73;;;0.30;;
60492;SDS011;46341;51.290;-2.474;2023-04-07T13:56:10;1.27;;;0.30;;
60492;SDS011;46341;51.290;-2.474;2023-04-07T13:58:37;0.65;;;0.30;;
60492;SDS011;46341;51.290;-2.474;2023-04-07T14:01:03;2.03;;;0.40;;
60492;SDS011;46341;51.290;-2.474;2023-04-07T14:03:29;1.50;;;0.80;;
60492;SDS011;46341;51.290;-2.474;2023-04-07T14:05:57;1.20;;;0.30;;
60492;SDS011;46341;51.290;-2.474;2023-04-07T14:08:26;1.35;;;0.30;;
60492;SDS011;46341;51.290;-2.474;2023-04-07T14:10:53;0.95;;;0.30;;
60492;SDS011;46341;51.290;-2.474;2023-04-07T14:13:19;1.40;;;0.30;;
60492;SDS011;46341;51.290;-2.474;2023-04-07T14:15:46;0.82;;;0.30;;
60492;SDS011;46341;51.290;-2.474;2023-04-07T14:18:13;1.23;;;0.35;;
60492;SDS011;46341;51.290;-2.474;2023-04-07T14:20:39;0.95;;;0.20;;
60492;SDS011;46341;51.290;-2.474;2023-04-07T14:23:06;1.80;;;0.30;;
60492;SDS011;46341;51.290;-2.474;2023-04-07T14:25:32;1.77;;;0.40;;
60492;SDS011;46341;51.290;-2.474;2023-04-07T14:27:58;0.85;;;0.30;;
60492;SDS011;46341;51.290;-2.474;2023-04-07T14:30:25;1.23;;;0.40;;
60492;SDS011;46341;51.290;-2.474;2023-04-07T14:32:51;1.05;;;0.28;;
60492;SDS011;46341;51.290;-2.474;2023-04-07T14:35:18;0.80;;;0.30;;
60492;SDS011;46341;51.290;-2.474;2023-04-07T14:37:45;0.75;;;0.30;;
60492;SDS011;46341;51.290;-2.474;2023-04-07T14:40:11;1.17;;;0.30;;
60492;SDS011;46341;51.290;-2.474;2023-04-07T14:42:38;0.98;;;0.40;;
60492;SDS011;46341;51.290;-2.474;2023-04-07T14:45:05;0.80;;;0.25;;
60492;SDS011;46341;51.290;-2.474;2023-04-07T14:47:31;1.10;;;0.32;;
60492;SDS011;46341;51.290;-2.474;2023-04-07T14:49:58;1.20;;;0.40;;
60492;SDS011;46341;51.290;-2.474;2023-04-07T14:52:24;1.20;;;0.50;;
60492;SDS011;46341;51.290;-2.474;2023-04-07T14:54:51;1.35;;;0.25;;
60492;SDS011;46341;51.290;-2.474;2023-04-07T14:57:17;1.30;;;0.40;;
60492;SDS011;46341;51.290;-2.474;2023-04-07T14:59:43;0.88;;;0.30;;
60492;SDS011;46341;51.290;-2.474;2023-04-07T15:02:10;1.35;;;0.40;;
60492;SDS011;46341;51.290;-2.474;2023-04-07T15:04:36;1.17;;;0.40;;
60492;SDS011;46341;51.290;-2.474;2023-04-07T15:07:03;4.65;;;4.07;;
60492;SDS011;46341;51.290;-2.474;2023-04-07T15:09:30;2.40;;;0.80;;
60492;SDS011;46341;51.290;-2.474;2023-04-07T15:11:56;1.02;;;0.30;;